Time;durP1;ratioP1;P1;durP2;ratioP2;P2;SDS_P1;SDS_P2;PMS_P1;PMS_P2;Temp;Humidity;BMP_temperature;BMP_pressure;BME280_temperature;BME280_humidity;BME280_pressure;Samples;Min_cycle;Max_cycle;Signal;HPM_P1;HPM_P2
2023/08/25 00:01:35;;;;;;;;;;;;;;;;;;4972978;28;19929;-85
2023/08/25 00:04:00;;;;;;;;;;;;;;;;;;4988376;28;19928;-85
2023/08/25 00:06:25;;;;;;;;;;;;;;;;;;4954927;28;20012;-85
2023/08/25 00:08:50;;;;;;;;;;;;;;;;;;4961794;28;20024;-85
2023/08/25 00:11:16;;;;;;;;;;;;;;;;;;4988682;28;20274;-83
2023/08/25 00:13:41;;;;;;;;;;;;;;;;;;4974524;28;19918;-85
2023/08/25 00:16:06;;;;;;;;;;;;;;;;;;4955900;28;20008;-84
2023/08/25 00:18:32;;;;;;;;;;;;;;;;;;4956405;28;19921;-85
2023/08/25 00:20:57;;;;;;;;;;;;;;;;;;4986566;28;20424;-85
2023/08/25 00:23:22;;;;;;;;;;;;;;;;;;4975296;28;19922;-84
2023/08/25 00:25:48;;;;;;;;;;;;;;;;;;4971058;28;20004;-85
2023/08/25 00:28:13;;;;;;;;;;;;;;;;;;4971546;28;19918;-85
2023/08/25 00:30:38;;;;;;;;;;;;;;;;;;4959696;28;19980;-84
2023/08/25 00:33:04;;;;;;;;;;;;;;;;;;4955476;28;19921;-84
2023/08/25 00:35:29;;;;;;;;;;;;;;;;;;4963579;28;20395;-85
2023/08/25 00:37:54;;;;;;;;;;;;;;;;;;4965075;28;20000;-85
2023/08/25 00:40:19;;;;;;;;;;;;;;;;;;4959777;28;20278;-85
2023/08/25 00:42:45;;;;;;;;;;;;;;;;;;4960118;28;19953;-84
2023/08/25 00:45:10;;;;;;;;;;;;;;;;;;4974648;28;19926;-85
2023/08/25 00:47:35;;;;;;;;;;;;;;;;;;4955132;28;20296;-84
2023/08/25 00:50:01;;;;;;;;;;;;;;;;;;4956184;28;19940;-85
2023/08/25 00:52:27;;;;;;;;;;;;;;;;;;4967644;28;19918;-84
2023/08/25 00:54:55;;;;;;;;;;;;;;;;;;4990004;28;19929;-83
2023/08/25 00:57:20;;;;;;;;;;;;;;;;;;4974748;28;20509;-85
2023/08/25 00:59:46;;;;;;;;;;;;;;;;;;4959946;28;19925;-84
2023/08/25 01:02:11;;;;;;;;;;;;;;;;;;4960091;28;19918;-84
2023/08/25 01:04:37;;;;;;;;;;;;;;;;;;4958933;28;20416;-85
2023/08/25 01:07:02;;;;;;;;;;;;;;;;;;4983901;28;19917;-84
2023/08/25 01:09:27;;;;;;;;;;;;;;;;;;4968453;28;19944;-84
2023/08/25 01:12:02;;;;;;;;;;;;;;;;;;4956604;28;19980;-85
2023/08/25 01:14:42;;;;;;;;;;;;;;;;;;4975059;28;20384;-85
2023/08/25 01:17:16;;;;;;;;;;;;;;;;;;4990600;28;19918;-85
2023/08/25 01:20:11;;;;;;;;;;;;;;;;;;4968718;28;19969;-84
2023/08/25 01:22:37;;;;;;;;;;;;;;;;;;4977804;28;19921;-85
2023/08/25 01:25:21;;;;;;;;;;;;;;;;;;4977860;28;20275;-85
2023/08/25 01:27:51;;;;;;;;;;;;;;;;;;4980077;28;20009;-84
2023/08/25 01:30:16;;;;;;;;;;;;;;;;;;4990336;28;19918;-85
2023/08/25 01:32:41;;;;;;;;;;;;;;;;;;4973372;28;20353;-85
2023/08/25 01:35:07;;;;;;;;;;;;;;;;;;4962299;28;19921;-85
2023/08/25 01:37:32;;;;;;;;;;;;;;;;;;4983043;28;19924;-85
2023/08/25 01:39:59;;;;;;;;;;;;;;;;;;4960482;28;19922;-84
2023/08/25 01:42:24;;;;;;;;;;;;;;;;;;4974567;28;19918;-84
2023/08/25 01:44:49;;;;;;;;;;;;;;;;;;4960038;28;19988;-85
2023/08/25 01:47:15;;;;;;;;;;;;;;;;;;4978067;28;19918;-85
2023/08/25 01:49:42;;;;;;;;;;;;;;;;;;4961869;28;19921;-85
2023/08/25 01:52:09;;;;;;;;;;;;;;;;;;4948857;28;19918;-85
2023/08/25 01:54:35;;;;;;;;;;;;;;;;;;4967472;28;19918;-85
2023/08/25 01:57:00;;;;;;;;;;;;;;;;;;4959350;28;19925;-85
2023/08/25 01:59:25;;;;;;;;;;;;;;;;;;4964877;28;19918;-85
2023/08/25 02:01:50;;;;;;;;;;;;;;;;;;4967128;28;19996;-85
2023/08/25 02:04:16;;;;;;;;;;;;;;;;;;4950626;28;19964;-83
2023/08/25 02:06:41;;;;;;;;;;;;;;;;;;4976523;28;19925;-85
2023/08/25 02:09:06;;;;;;;;;;;;;;;;;;4956658;28;19953;-85
2023/08/25 02:11:32;;;;;;;;;;;;;;;;;;4966839;28;20337;-84
2023/08/25 02:13:57;;;;;;;;;;;;;;;;;;4961692;28;19913;-84
2023/08/25 02:16:22;;;;;;;;;;;;;;;;;;4967017;28;19921;-85
2023/08/25 02:18:47;;;;;;;;;;;;;;;;;;4963391;28;19917;-84
2023/08/25 02:21:16;;;;;;;;;;;;;;;;;;4962838;28;19921;-85
2023/08/25 02:23:41;;;;;;;;;;;;;;;;;;4963623;28;20004;-83
2023/08/25 02:26:06;;;;;;;;;;;;;;;;;;4981654;28;20009;-85
2023/08/25 02:28:32;;;;;;;;;;;;;;;;;;4987525;28;19914;-85
2023/08/25 02:30:59;;;;;;;;;;;;;;;;;;4965600;28;19918;-84
2023/08/25 02:33:25;;;;;;;;;;;;;;;;;;4962778;28;20282;-83
2023/08/25 02:35:50;;;;;;;;;;;;;;;;;;4987999;28;19925;-85
2023/08/25 02:38:15;;;;;;;;;;;;;;;;;;4963035;28;20061;-85
2023/08/25 02:40:40;;;;;;;;;;;;;;;;;;4973140;28;19914;-85
2023/08/25 02:43:06;;;;;;;;;;;;;;;;;;4974605;28;21922;-85
2023/08/25 02:45:32;;;;;;;;;;;;;;;;;;4976769;28;19917;-83
2023/08/25 02:47:57;;;;;;;;;;;;;;;;;;4974389;28;19925;-85
2023/08/25 02:50:22;;;;;;;;;;;;;;;;;;4973114;28;19925;-84
2023/08/25 02:52:47;;;;;;;;;;;;;;;;;;4974450;28;19921;-84
2023/08/25 02:55:17;;;;;;;;;;;;;;;;;;4981275;28;20348;-85
2023/08/25 02:57:43;;;;;;;;;;;;;;;;;;4966979;28;20396;-84
2023/08/25 03:00:11;;;;;;;;;;;;;;;;;;4958807;28;19918;-85
2023/08/25 03:02:37;;;;;;;;;;;;;;;;;;4972662;28;19922;-85
2023/08/25 03:05:02;;;;;;;;;;;;;;;;;;4964867;28;19969;-85
2023/08/25 03:07:27;;;;;;;;;;;;;;;;;;4964903;28;19937;-85
2023/08/25 03:09:53;;;;;;;;;;;;;;;;;;4965888;28;19933;-85
2023/08/25 03:12:22;;;;;;;;;;;;;;;;;;4971694;28;19917;-85
2023/08/25 03:14:47;;;;;;;;;;;;;;;;;;4957778;28;19933;-85
2023/08/25 03:17:13;;;;;;;;;;;;;;;;;;4973423;28;19918;-85
2023/08/25 03:19:38;;;;;;;;;;;;;;;;;;4956467;28;19917;-85
2023/08/25 03:22:03;;;;;;;;;;;;;;;;;;4985142;28;19914;-84
2023/08/25 03:24:29;;;;;;;;;;;;;;;;;;4963801;28;19921;-85
2023/08/25 03:26:56;;;;;;;;;;;;;;;;;;4956667;28;19968;-85
2023/08/25 03:29:22;;;;;;;;;;;;;;;;;;4957150;28;19918;-85
2023/08/25 03:31:47;;;;;;;;;;;;;;;;;;4977988;28;19925;-85
2023/08/25 03:34:12;;;;;;;;;;;;;;;;;;4956321;28;20005;-84
2023/08/25 03:36:37;;;;;;;;;;;;;;;;;;4971849;28;19921;-85
2023/08/25 03:39:04;;;;;;;;;;;;;;;;;;4982256;28;19918;-85
2023/08/25 03:41:30;;;;;;;;;;;;;;;;;;4961277;28;19918;-85
2023/08/25 03:43:55;;;;;;;;;;;;;;;;;;4956980;28;19932;-85
2023/08/25 03:46:20;;;;;;;;;;;;;;;;;;4961377;28;19918;-85
2023/08/25 03:48:46;;;;;;;;;;;;;;;;;;4989071;28;19926;-84
2023/08/25 03:51:11;;;;;;;;;;;;;;;;;;4980021;28;19953;-85
2023/08/25 03:53:36;;;;;;;;;;;;;;;;;;4962780;28;25042;-85
2023/08/25 03:56:02;;;;;;;;;;;;;;;;;;4948101;28;19913;-84
2023/08/25 03:58:27;;;;;;;;;;;;;;;;;;4963059;28;19925;-84
2023/08/25 04:00:54;;;;;;;;;;;;;;;;;;4977335;28;20021;-84
2023/08/25 04:03:25;;;;;;;;;;;;;;;;;;4957832;28;20362;-85
2023/08/25 04:05:50;;;;;;;;;;;;;;;;;;4961661;28;19918;-84
2023/08/25 04:08:16;;;;;;;;;;;;;;;;;;4956662;28;20293;-84
2023/08/25 04:10:41;;;;;;;;;;;;;;;;;;4958108;28;19917;-84
2023/08/25 04:13:07;;;;;;;;;;;;;;;;;;4966640;28;19953;-83
2023/08/25 04:15:32;;;;;;;;;;;;;;;;;;4970178;28;19929;-84
2023/08/25 04:17:57;;;;;;;;;;;;;;;;;;4965093;28;20393;-83
2023/08/25 04:20:23;;;;;;;;;;;;;;;;;;4965059;28;19924;-82
2023/08/25 04:22:48;;;;;;;;;;;;;;;;;;4988662;28;19918;-83
2023/08/25 04:25:13;;;;;;;;;;;;;;;;;;4959645;28;19925;-83
2023/08/25 04:27:39;;;;;;;;;;;;;;;;;;4957195;28;20028;-84
2023/08/25 04:30:04;;;;;;;;;;;;;;;;;;4994009;28;19918;-84
2023/08/25 04:32:30;;;;;;;;;;;;;;;;;;4987860;28;19918;-84
2023/08/25 04:34:56;;;;;;;;;;;;;;;;;;4963227;28;19930;-83
2023/08/25 04:37:21;;;;;;;;;;;;;;;;;;4962072;28;19972;-84
2023/08/25 04:39:47;;;;;;;;;;;;;;;;;;4981493;28;19925;-83
2023/08/25 04:42:12;;;;;;;;;;;;;;;;;;4971930;28;20499;-84
2023/08/25 04:44:38;;;;;;;;;;;;;;;;;;4989292;28;20004;-83
2023/08/25 04:47:03;;;;;;;;;;;;;;;;;;4955679;28;19913;-82
2023/08/25 04:49:29;;;;;;;;;;;;;;;;;;4978741;28;19955;-82
2023/08/25 04:52:00;;;;;;;;;;;;;;;;;;4969983;28;19918;-82
2023/08/25 04:54:25;;;;;;;;;;;;;;;;;;4969923;28;19914;-82
2023/08/25 04:56:51;;;;;;;;;;;;;;;;;;4963694;28;19928;-85
2023/08/25 04:59:16;;;;;;;;;;;;;;;;;;4960333;28;20324;-84
2023/08/25 05:01:42;;;;;;;;;;;;;;;;;;4968535;28;20321;-85
2023/08/25 05:04:08;;;;;;;;;;;;;;;;;;4972360;28;20013;-85
2023/08/25 05:06:33;;;;;;;;;;;;;;;;;;4970214;28;20170;-84
2023/08/25 05:08:58;;;;;;;;;;;;;;;;;;4980849;28;19928;-85
2023/08/25 05:11:24;;;;;;;;;;;;;;;;;;4986109;28;19922;-84
2023/08/25 05:13:52;;;;;;;;;;;;;;;;;;4972302;28;19924;-84
2023/08/25 05:16:19;;;;;;;;;;;;;;;;;;4956290;28;19918;-85
2023/08/25 05:18:44;;;;;;;;;;;;;;;;;;4964724;28;19924;-84
2023/08/25 05:21:09;;;;;;;;;;;;;;;;;;4975151;28;19917;-85
2023/08/25 05:23:35;;;;;;;;;;;;;;;;;;4962356;28;19929;-84
2023/08/25 05:26:00;;;;;;;;;;;;;;;;;;4977684;28;19925;-85
2023/08/25 05:28:25;;;;;;;;;;;;;;;;;;4961754;28;20340;-84
2023/08/25 05:30:51;;;;;;;;;;;;;;;;;;4969411;28;19922;-84
2023/08/25 05:33:16;;;;;;;;;;;;;;;;;;4962090;28;19961;-84
2023/08/25 05:35:44;;;;;;;;;;;;;;;;;;4959578;28;19917;-84
2023/08/25 05:38:10;;;;;;;;;;;;;;;;;;4977742;28;19925;-83
2023/08/25 05:40:35;;;;;;;;;;;;;;;;;;4990024;28;19922;-84
2023/08/25 05:43:00;;;;;;;;;;;;;;;;;;4960089;28;20016;-85
2023/08/25 05:45:25;;;;;;;;;;;;;;;;;;4967413;28;19940;-84
2023/08/25 05:47:51;;;;;;;;;;;;;;;;;;4965628;28;20412;-84
2023/08/25 05:50:16;;;;;;;;;;;;;;;;;;4983904;28;19925;-85
2023/08/25 05:52:44;;;;;;;;;;;;;;;;;;4958955;28;20400;-84
2023/08/25 05:55:11;;;;;;;;;;;;;;;;;;4958446;28;20036;-85
2023/08/25 05:57:36;;;;;;;;;;;;;;;;;;4955787;28;19925;-85
2023/08/25 06:00:02;;;;;;;;;;;;;;;;;;4967545;28;19913;-85
2023/08/25 06:02:27;;;;;;;;;;;;;;;;;;4967474;28;20024;-85
2023/08/25 06:04:53;;;;;;;;;;;;;;;;;;4958986;28;20416;-84
2023/08/25 06:07:18;;;;;;;;;;;;;;;;;;4984557;28;20289;-84
2023/08/25 06:09:43;;;;;;;;;;;;;;;;;;4967211;28;19933;-84
2023/08/25 06:12:08;;;;;;;;;;;;;;;;;;4962944;28;19961;-84
2023/08/25 06:14:35;;;;;;;;;;;;;;;;;;4990592;28;19928;-84
2023/08/25 06:17:09;;;;;;;;;;;;;;;;;;4966989;28;20354;-83
2023/08/25 06:19:36;;;;;;;;;;;;;;;;;;4991023;28;19914;-85
2023/08/25 06:22:01;;;;;;;;;;;;;;;;;;4967375;28;19918;-85
2023/08/25 06:24:26;;;;;;;;;;;;;;;;;;4980532;28;19926;-84
2023/08/25 06:26:52;;;;;;;;;;;;;;;;;;4957488;28;19981;-85
2023/08/25 06:29:20;;;;;;;;;;;;;;;;;;4975934;28;19987;-86
2023/08/25 06:31:45;;;;;;;;;;;;;;;;;;4967521;28;19914;-85
2023/08/25 06:34:10;;;;;;;;;;;;;;;;;;4975746;28;20377;-86
2023/08/25 06:36:36;;;;;;;;;;;;;;;;;;4974336;28;19952;-85
2023/08/25 06:39:03;;;;;;;;;;;;;;;;;;4980240;28;19917;-85
2023/08/25 06:41:29;;;;;;;;;;;;;;;;;;4964056;28;20445;-85
2023/08/25 06:43:57;;;;;;;;;;;;;;;;;;4972326;28;19925;-84
2023/08/25 06:46:22;;;;;;;;;;;;;;;;;;4980178;28;19913;-86
2023/08/25 06:48:47;;;;;;;;;;;;;;;;;;4958702;28;20783;-86
2023/08/25 06:51:12;;;;;;;;;;;;;;;;;;4956993;28;20025;-86
2023/08/25 06:53:38;;;;;;;;;;;;;;;;;;4967214;28;19964;-85
2023/08/25 06:56:03;;;;;;;;;;;;;;;;;;4949697;28;20354;-83
2023/08/25 06:58:28;;;;;;;;;;;;;;;;;;4968143;28;19917;-86
2023/08/25 07:00:57;;;;;;;;;;;;;;;;;;4963603;28;19924;-85
2023/08/25 07:03:22;;;;;;;;;;;;;;;;;;4972795;28;19918;-83
2023/08/25 07:05:48;;;;;;;;;;;;;;;;;;4967292;28;19977;-83
2023/08/25 07:08:14;;;;;;;;;;;;;;;;;;4957457;28;20289;-83
2023/08/25 07:10:45;;;;;;;;;;;;;;;;;;4956774;28;19914;-86
2023/08/25 07:13:10;;;;;;;;;;;;;;;;;;4959047;28;20412;-84
2023/08/25 07:15:43;;;;;;;;;;;;;;;;;;4972012;28;19918;-84
2023/08/25 07:18:09;;;;;;;;;;;;;;;;;;4958040;28;19932;-84
2023/08/25 07:20:34;;;;;;;;;;;;;;;;;;4956931;28;19914;-85
2023/08/25 07:22:59;;;;;;;;;;;;;;;;;;4960453;28;20388;-84
2023/08/25 07:25:25;;;;;;;;;;;;;;;;;;4956325;28;19924;-85
2023/08/25 07:27:50;;;;;;;;;;;;;;;;;;4958277;28;20029;-86
2023/08/25 07:30:15;;;;;;;;;;;;;;;;;;4964121;28;20599;-85
2023/08/25 07:32:40;;;;;;;;;;;;;;;;;;4960876;28;19988;-85
2023/08/25 07:35:06;;;;;;;;;;;;;;;;;;4966078;28;20258;-87
2023/08/25 07:37:31;;;;;;;;;;;;;;;;;;4956737;28;19969;-86
2023/08/25 07:39:57;;;;;;;;;;;;;;;;;;4958844;28;20005;-85
2023/08/25 07:42:23;;;;;;;;;;;;;;;;;;4964034;28;19969;-85
2023/08/25 07:44:49;;;;;;;;;;;;;;;;;;4982770;28;20062;-86
2023/08/25 07:47:14;;;;;;;;;;;;;;;;;;4972211;28;19918;-83
2023/08/25 07:49:43;;;;;;;;;;;;;;;;;;4957140;28;20401;-85
2023/08/25 07:52:08;;;;;;;;;;;;;;;;;;4956653;28;20273;-84
2023/08/25 07:54:33;;;;;;;;;;;;;;;;;;4965646;28;20012;-85
2023/08/25 07:56:58;;;;;;;;;;;;;;;;;;4956865;28;19993;-84
2023/08/25 07:59:24;;;;;;;;;;;;;;;;;;4959932;28;20000;-83
2023/08/25 08:01:50;;;;;;;;;;;;;;;;;;4955689;28;20390;-84
2023/08/25 08:04:15;;;;;;;;;;;;;;;;;;4973776;28;20348;-85
2023/08/25 08:06:41;;;;;;;;;;;;;;;;;;4949079;28;20037;-85
2023/08/25 08:09:06;;;;;;;;;;;;;;;;;;4973323;28;20378;-86
2023/08/25 08:11:32;;;;;;;;;;;;;;;;;;4955979;28;19918;-85
2023/08/25 08:13:57;;;;;;;;;;;;;;;;;;4958349;28;19980;-85
2023/08/25 08:16:24;;;;;;;;;;;;;;;;;;4975649;28;20431;-84
2023/08/25 08:18:50;;;;;;;;;;;;;;;;;;4957302;28;19918;-85
2023/08/25 08:21:15;;;;;;;;;;;;;;;;;;4973271;28;19917;-86
2023/08/25 08:23:43;;;;;;;;;;;;;;;;;;4965739;28;20061;-85
2023/08/25 08:26:09;;;;;;;;;;;;;;;;;;4987027;28;19927;-84
2023/08/25 08:28:34;;;;;;;;;;;;;;;;;;4980936;28;19918;-85
2023/08/25 08:31:04;;;;;;;;;;;;;;;;;;4970680;28;19924;-85
2023/08/25 08:33:29;;;;;;;;;;;;;;;;;;4949740;28;19921;-85
2023/08/25 08:35:54;;;;;;;;;;;;;;;;;;4963246;28;19926;-85
2023/08/25 08:38:20;;;;;;;;;;;;;;;;;;4982684;28;19977;-84
2023/08/25 08:40:45;;;;;;;;;;;;;;;;;;4979812;28;19913;-85
2023/08/25 08:43:15;;;;;;;;;;;;;;;;;;4955543;28;20293;-86
2023/08/25 08:45:40;;;;;;;;;;;;;;;;;;4986902;28;19984;-85
2023/08/25 08:48:06;;;;;;;;;;;;;;;;;;4979155;28;19918;-85
2023/08/25 08:50:32;;;;;;;;;;;;;;;;;;4970858;28;19918;-85
2023/08/25 08:52:57;;;;;;;;;;;;;;;;;;4971839;28;20457;-85
2023/08/25 08:55:22;;;;;;;;;;;;;;;;;;4963047;28;19914;-84
2023/08/25 08:57:49;;;;;;;;;;;;;;;;;;4957977;28;19918;-85
2023/08/25 09:00:18;;;;;;;;;;;;;;;;;;4965629;28;20392;-85
2023/08/25 09:02:43;;;;;;;;;;;;;;;;;;4972043;28;19925;-85
2023/08/25 09:05:11;;;;;;;;;;;;;;;;;;4966083;28;19925;-85
2023/08/25 09:07:37;;;;;;;;;;;;;;;;;;4963362;28;19918;-86
2023/08/25 09:10:02;;;;;;;;;;;;;;;;;;4956465;28;20391;-85
2023/08/25 09:12:29;;;;;;;;;;;;;;;;;;4979682;28;19933;-84
2023/08/25 09:14:54;;;;;;;;;;;;;;;;;;4960881;28;19976;-85
2023/08/25 09:17:20;;;;;;;;;;;;;;;;;;4956143;28;19914;-85
2023/08/25 09:19:46;;;;;;;;;;;;;;;;;;4956822;28;19918;-84
2023/08/25 09:22:13;;;;;;;;;;;;;;;;;;4959177;28;20041;-85
2023/08/25 09:24:38;;;;;;;;;;;;;;;;;;4969153;28;19922;-84
2023/08/25 09:27:04;;;;;;;;;;;;;;;;;;4958851;28;19925;-85
2023/08/25 09:29:41;;;;;;;;;;;;;;;;;;4973835;28;20061;-84
2023/08/25 09:32:07;;;;;;;;;;;;;;;;;;4958160;28;19918;-84
2023/08/25 09:34:32;;;;;;;;;;;;;;;;;;4957984;28;19918;-84
2023/08/25 09:36:57;;;;;;;;;;;;;;;;;;4974125;28;19981;-85
2023/08/25 09:39:23;;;;;;;;;;;;;;;;;;4973994;28;20370;-86
2023/08/25 09:41:49;;;;;;;;;;;;;;;;;;4968297;28;19918;-84
2023/08/25 09:44:15;;;;;;;;;;;;;;;;;;4975529;28;20251;-84
2023/08/25 09:46:43;;;;;;;;;;;;;;;;;;4968761;28;19918;-84
2023/08/25 09:49:09;;;;;;;;;;;;;;;;;;4968932;28;19964;-85
2023/08/25 09:51:39;;;;;;;;;;;;;;;;;;4957610;28;20826;-85
2023/08/25 09:54:12;;;;;;;;;;;;;;;;;;4983264;28;20004;-85
2023/08/25 09:56:38;;;;;;;;;;;;;;;;;;4974082;28;19937;-85
2023/08/25 09:59:04;;;;;;;;;;;;;;;;;;4956951;28;20707;-85
2023/08/25 10:01:30;;;;;;;;;;;;;;;;;;4976033;28;19968;-85
2023/08/25 10:03:55;;;;;;;;;;;;;;;;;;4973125;28;19918;-85
2023/08/25 10:06:21;;;;;;;;;;;;;;;;;;4975886;28;20428;-86
2023/08/25 10:08:46;;;;;;;;;;;;;;;;;;4990437;28;19976;-86
2023/08/25 10:11:12;;;;;;;;;;;;;;;;;;4964357;28;19961;-87
2023/08/25 10:13:37;;;;;;;;;;;;;;;;;;4991883;28;19918;-87
2023/08/25 10:16:03;;;;;;;;;;;;;;;;;;4959423;28;20401;-87
2023/08/25 10:18:28;;;;;;;;;;;;;;;;;;4961945;28;19956;-87
2023/08/25 10:20:54;;;;;;;;;;;;;;;;;;4959315;28;19924;-86
2023/08/25 10:23:19;;;;;;;;;;;;;;;;;;4959816;28;19918;-90
2023/08/25 10:25:44;;;;;;;;;;;;;;;;;;4967099;28;19918;-86
2023/08/25 10:28:12;;;;;;;;;;;;;;;;;;4966847;28;20459;-86
2023/08/25 10:30:38;;;;;;;;;;;;;;;;;;4967357;28;19975;-87
2023/08/25 10:33:07;;;;;;;;;;;;;;;;;;4980394;28;19918;-88
2023/08/25 10:35:44;;;;;;;;;;;;;;;;;;4967552;28;19918;-87
2023/08/25 10:38:19;;;;;;;;;;;;;;;;;;4960946;28;19972;-87
2023/08/25 10:40:52;;;;;;;;;;;;;;;;;;4990184;28;20517;-87
2023/08/25 10:43:29;;;;;;;;;;;;;;;;;;4978576;28;20040;-87
2023/08/25 10:45:54;;;;;;;;;;;;;;;;;;4982216;28;19983;-87
2023/08/25 10:48:20;;;;;;;;;;;;;;;;;;4979435;28;20330;-86
2023/08/25 10:50:45;;;;;;;;;;;;;;;;;;4963653;28;20006;-87
2023/08/25 10:53:29;;;;;;;;;;;;;;;;;;4955018;28;19918;-88
2023/08/25 10:55:54;;;;;;;;;;;;;;;;;;4973393;28;19914;-87
2023/08/25 10:58:20;;;;;;;;;;;;;;;;;;4958965;28;19940;-87
2023/08/25 11:00:57;;;;;;;;;;;;;;;;;;4946822;28;19965;-86
2023/08/25 11:03:42;;;;;;;;;;;;;;;;;;4974096;28;19913;-87
2023/08/25 11:06:28;;;;;;;;;;;;;;;;;;4974327;28;19918;-88
2023/08/25 11:09:17;;;;;;;;;;;;;;;;;;4981421;28;19922;-87
2023/08/25 11:11:42;;;;;;;;;;;;;;;;;;4981212;28;19918;-88
2023/08/25 11:14:07;;;;;;;;;;;;;;;;;;4967836;28;19921;-87
2023/08/25 11:16:33;;;;;;;;;;;;;;;;;;4958976;28;19918;-88
2023/08/25 11:19:07;;;;;;;;;;;;;;;;;;4969730;28;20727;-87
2023/08/25 11:21:32;;;;;;;;;;;;;;;;;;4982860;28;20357;-87
2023/08/25 11:23:57;;;;;;;;;;;;;;;;;;4965731;28;19925;-88
2023/08/25 11:26:22;;;;;;;;;;;;;;;;;;4967430;28;20384;-88
2023/08/25 11:28:51;;;;;;;;;;;;;;;;;;4977544;28;20384;-87
2023/08/25 11:31:17;;;;;;;;;;;;;;;;;;4967595;28;20259;-88
2023/08/25 11:33:43;;;;;;;;;;;;;;;;;;4958149;28;19929;-87
2023/08/25 11:36:15;;;;;;;;;;;;;;;;;;4990393;28;19918;-87
2023/08/25 11:38:40;;;;;;;;;;;;;;;;;;4991518;28;19918;-87
2023/08/25 11:41:06;;;;;;;;;;;;;;;;;;4986945;28;19918;-87
2023/08/25 11:43:36;;;;;;;;;;;;;;;;;;4959033;28;19989;-88
2023/08/25 11:46:01;;;;;;;;;;;;;;;;;;4966710;28;20442;-86
2023/08/25 11:48:26;;;;;;;;;;;;;;;;;;4977064;28;20004;-86
2023/08/25 11:50:52;;;;;;;;;;;;;;;;;;4969776;28;19918;-86
2023/08/25 11:53:17;;;;;;;;;;;;;;;;;;4989191;28;19918;-86
2023/08/25 11:55:45;;;;;;;;;;;;;;;;;;4959745;28;19925;-87
2023/08/25 11:58:11;;;;;;;;;;;;;;;;;;4980846;28;20349;-86
2023/08/25 12:00:37;;;;;;;;;;;;;;;;;;4977924;28;19926;-86
2023/08/25 12:03:03;;;;;;;;;;;;;;;;;;4954792;28;19914;-86
2023/08/25 12:05:30;;;;;;;;;;;;;;;;;;4969782;28;19924;-87
2023/08/25 12:07:59;;;;;;;;;;;;;;;;;;4972684;28;20396;-87
2023/08/25 12:10:24;;;;;;;;;;;;;;;;;;4959258;28;19920;-87
2023/08/25 12:12:52;;;;;;;;;;;;;;;;;;4966615;28;19921;-87
2023/08/25 12:15:17;;;;;;;;;;;;;;;;;;4957858;28;19926;-87
2023/08/25 12:17:46;;;;;;;;;;;;;;;;;;4967006;28;19918;-87
2023/08/25 12:20:13;;;;;;;;;;;;;;;;;;4965644;28;19921;-84
2023/08/25 12:23:00;;;;;;;;;;;;;;;;;;4974199;28;20297;-86
2023/08/25 12:25:25;;;;;;;;;;;;;;;;;;4987136;28;19972;-86
2023/08/25 12:27:51;;;;;;;;;;;;;;;;;;4958173;28;19918;-87
2023/08/25 12:30:19;;;;;;;;;;;;;;;;;;4961514;28;20345;-87
2023/08/25 12:32:56;;;;;;;;;;;;;;;;;;4972371;28;20542;-86
2023/08/25 12:35:23;;;;;;;;;;;;;;;;;;4964454;28;19969;-86
2023/08/25 12:37:48;;;;;;;;;;;;;;;;;;4980085;28;19925;-86
2023/08/25 12:40:14;;;;;;;;;;;;;;;;;;4957229;28;19918;-86
2023/08/25 12:42:39;;;;;;;;;;;;;;;;;;4965194;28;20350;-85
2023/08/25 12:45:05;;;;;;;;;;;;;;;;;;4958174;28;19917;-87
2023/08/25 12:47:30;;;;;;;;;;;;;;;;;;4965138;28;20255;-87
2023/08/25 12:49:55;;;;;;;;;;;;;;;;;;4958275;28;19918;-87
2023/08/25 12:52:21;;;;;;;;;;;;;;;;;;4959516;28;19965;-87
2023/08/25 12:54:46;;;;;;;;;;;;;;;;;;4959830;28;19929;-87
2023/08/25 12:57:11;;;;;;;;;;;;;;;;;;4970777;28;19924;-88
2023/08/25 12:59:36;;;;;;;;;;;;;;;;;;4967342;28;19922;-86
2023/08/25 13:02:02;;;;;;;;;;;;;;;;;;4976037;28;19918;-87
2023/08/25 13:04:28;;;;;;;;;;;;;;;;;;4966467;28;20386;-85
2023/08/25 13:06:53;;;;;;;;;;;;;;;;;;4959622;28;20175;-83
2023/08/25 13:09:20;;;;;;;;;;;;;;;;;;4969577;28;19926;-84
2023/08/25 13:11:45;;;;;;;;;;;;;;;;;;4957835;28;19921;-85
2023/08/25 13:14:10;;;;;;;;;;;;;;;;;;4962245;28;20420;-83
2023/08/25 13:16:35;;;;;;;;;;;;;;;;;;4968026;28;20357;-83
2023/08/25 13:19:01;;;;;;;;;;;;;;;;;;4965130;28;20055;-84
2023/08/25 13:21:26;;;;;;;;;;;;;;;;;;4974700;28;19950;-83
2023/08/25 13:23:51;;;;;;;;;;;;;;;;;;4961013;28;19924;-85
2023/08/25 13:26:16;;;;;;;;;;;;;;;;;;4991969;28;19956;-85
2023/08/25 13:28:42;;;;;;;;;;;;;;;;;;4968285;28;19917;-84
2023/08/25 13:31:07;;;;;;;;;;;;;;;;;;4961164;28;19918;-84
2023/08/25 13:33:32;;;;;;;;;;;;;;;;;;4969658;28;19918;-83
2023/08/25 13:35:58;;;;;;;;;;;;;;;;;;4989682;28;19913;-83
2023/08/25 13:38:28;;;;;;;;;;;;;;;;;;4942173;28;20341;-83
2023/08/25 13:40:53;;;;;;;;;;;;;;;;;;4975053;28;19999;-83
2023/08/25 13:43:18;;;;;;;;;;;;;;;;;;4966226;28;19925;-84
2023/08/25 13:45:45;;;;;;;;;;;;;;;;;;4968407;28;20149;-84
2023/08/25 13:48:14;;;;;;;;;;;;;;;;;;4967444;28;19917;-85
2023/08/25 13:50:39;;;;;;;;;;;;;;;;;;4974257;28;19924;-85
2023/08/25 13:53:05;;;;;;;;;;;;;;;;;;4974677;28;19918;-85
2023/08/25 13:55:31;;;;;;;;;;;;;;;;;;4958447;28;20012;-85
2023/08/25 13:57:56;;;;;;;;;;;;;;;;;;4959348;28;19969;-86
2023/08/25 14:00:21;;;;;;;;;;;;;;;;;;4977996;28;19917;-84
2023/08/25 14:02:47;;;;;;;;;;;;;;;;;;4990755;28;20436;-85
2023/08/25 14:05:15;;;;;;;;;;;;;;;;;;4984984;28;20008;-85
2023/08/25 14:07:40;;;;;;;;;;;;;;;;;;4967013;28;20448;-85
2023/08/25 14:10:06;;;;;;;;;;;;;;;;;;4980779;28;19917;-85
2023/08/25 14:12:31;;;;;;;;;;;;;;;;;;4965246;28;20285;-85
2023/08/25 14:14:57;;;;;;;;;;;;;;;;;;4973073;28;19921;-84
2023/08/25 14:17:22;;;;;;;;;;;;;;;;;;4949684;28;19921;-85
2023/08/25 14:19:50;;;;;;;;;;;;;;;;;;4984030;28;20280;-85
2023/08/25 14:22:16;;;;;;;;;;;;;;;;;;4956705;28;19922;-85
2023/08/25 14:24:41;;;;;;;;;;;;;;;;;;4956895;28;19981;-85
2023/08/25 14:27:06;;;;;;;;;;;;;;;;;;4970765;28;19914;-85
2023/08/25 14:29:32;;;;;;;;;;;;;;;;;;4981775;28;19914;-84
2023/08/25 14:31:58;;;;;;;;;;;;;;;;;;4940434;28;20380;-83
2023/08/25 14:34:23;;;;;;;;;;;;;;;;;;4956066;28;19918;-83
2023/08/25 14:36:49;;;;;;;;;;;;;;;;;;4981775;28;20726;-83
2023/08/25 14:39:15;;;;;;;;;;;;;;;;;;4971879;28;19973;-83
2023/08/25 14:41:40;;;;;;;;;;;;;;;;;;4966973;28;19921;-82
2023/08/25 14:44:06;;;;;;;;;;;;;;;;;;4966766;28;20472;-82
2023/08/25 14:46:36;;;;;;;;;;;;;;;;;;4966610;28;19918;-82
2023/08/25 14:49:02;;;;;;;;;;;;;;;;;;4960532;28;20378;-82
2023/08/25 14:51:27;;;;;;;;;;;;;;;;;;4973313;28;19964;-82
2023/08/25 14:53:53;;;;;;;;;;;;;;;;;;4956275;28;19922;-82
2023/08/25 14:56:18;;;;;;;;;;;;;;;;;;4967085;28;20013;-82
2023/08/25 14:58:44;;;;;;;;;;;;;;;;;;4967431;28;19930;-83
2023/08/25 15:01:09;;;;;;;;;;;;;;;;;;4966207;28;20016;-82
2023/08/25 15:03:41;;;;;;;;;;;;;;;;;;4972808;28;19922;-82
2023/08/25 15:06:07;;;;;;;;;;;;;;;;;;4964855;28;19924;-82
2023/08/25 15:08:32;;;;;;;;;;;;;;;;;;4974326;28;19925;-82
2023/08/25 15:10:57;;;;;;;;;;;;;;;;;;4955767;28;19948;-85
2023/08/25 15:13:23;;;;;;;;;;;;;;;;;;4981943;28;19918;-83
2023/08/25 15:15:49;;;;;;;;;;;;;;;;;;4975854;28;19925;-84
2023/08/25 15:18:14;;;;;;;;;;;;;;;;;;4956741;28;19949;-83
2023/08/25 15:20:40;;;;;;;;;;;;;;;;;;4966265;28;19926;-84
2023/08/25 15:23:06;;;;;;;;;;;;;;;;;;4971953;28;19917;-85
2023/08/25 15:25:31;;;;;;;;;;;;;;;;;;4955786;28;20269;-84
2023/08/25 15:27:57;;;;;;;;;;;;;;;;;;4962739;28;19937;-84
2023/08/25 15:30:22;;;;;;;;;;;;;;;;;;4956532;28;19925;-84
2023/08/25 15:32:47;;;;;;;;;;;;;;;;;;4957980;28;19937;-84
2023/08/25 15:35:13;;;;;;;;;;;;;;;;;;4956615;28;20001;-83
2023/08/25 15:37:38;;;;;;;;;;;;;;;;;;4955261;28;19918;-84
2023/08/25 15:40:04;;;;;;;;;;;;;;;;;;4955880;28;19918;-81
2023/08/25 15:42:29;;;;;;;;;;;;;;;;;;4951499;28;19953;-82
2023/08/25 15:44:55;;;;;;;;;;;;;;;;;;4971131;28;20016;-81
2023/08/25 15:47:20;;;;;;;;;;;;;;;;;;4979708;28;20684;-82
2023/08/25 15:49:48;;;;;;;;;;;;;;;;;;4964808;28;20044;-81
2023/08/25 15:52:14;;;;;;;;;;;;;;;;;;4979560;28;20005;-81
2023/08/25 15:54:39;;;;;;;;;;;;;;;;;;4972275;28;19977;-82
2023/08/25 15:57:04;;;;;;;;;;;;;;;;;;4971119;28;20749;-82
2023/08/25 15:59:30;;;;;;;;;;;;;;;;;;4946951;28;19997;-82
2023/08/25 16:01:55;;;;;;;;;;;;;;;;;;4966112;28;20321;-83
2023/08/25 16:04:20;;;;;;;;;;;;;;;;;;4975524;28;20066;-82
2023/08/25 16:06:45;;;;;;;;;;;;;;;;;;4960136;28;20010;-82
2023/08/25 16:09:11;;;;;;;;;;;;;;;;;;4957238;28;20389;-82
2023/08/25 16:11:36;;;;;;;;;;;;;;;;;;4964537;28;20027;-82
2023/08/25 16:14:02;;;;;;;;;;;;;;;;;;4955334;28;19922;-83
2023/08/25 16:16:33;;;;;;;;;;;;;;;;;;4946393;28;20275;-81
2023/08/25 16:18:58;;;;;;;;;;;;;;;;;;4970903;28;19918;-81
2023/08/25 16:21:24;;;;;;;;;;;;;;;;;;4962387;28;19921;-83
2023/08/25 16:23:50;;;;;;;;;;;;;;;;;;4971313;28;19918;-81
2023/08/25 16:26:27;;;;;;;;;;;;;;;;;;4957493;28;19918;-81
2023/08/25 16:28:52;;;;;;;;;;;;;;;;;;4956832;28;19918;-81
2023/08/25 16:31:17;;;;;;;;;;;;;;;;;;4937678;28;20413;-81
2023/08/25 16:33:43;;;;;;;;;;;;;;;;;;4963621;28;20325;-81
2023/08/25 16:36:08;;;;;;;;;;;;;;;;;;4969996;28;19922;-83
2023/08/25 16:38:35;;;;;;;;;;;;;;;;;;4967140;28;19913;-81
2023/08/25 16:41:01;;;;;;;;;;;;;;;;;;4965575;28;20281;-82